sensor_id;sensor_type;location;lat;lon;timestamp;pressure;altitude;pressure_sealevel;temperature;humidity
71778;BME280;59609;52.430;4.668;2023-04-02T00:08:55;101400.50;;;7.11;100.00
71778;BME280;59609;52.430;4.668;2023-04-02T00:11:31;101408.00;;;7.09;100.00
71778;BME280;59609;52.430;4.668;2023-04-02T00:14:00;101404.25;;;7.10;100.00
71778;BME280;59609;52.430;4.668;2023-04-02T00:16:27;101406.59;;;7.14;100.00
71778;BME280;59609;52.430;4.668;2023-04-02T00:18:56;101407.28;;;7.07;100.00
71778;BME280;59609;52.430;4.668;2023-04-02T00:21:26;101421.69;;;7.09;100.00
71778;BME280;59609;52.430;4.668;2023-04-02T00:23:54;101408.00;;;7.09;100.00
71778;BME280;59609;52.430;4.668;2023-04-02T00:26:31;101417.56;;;7.14;100.00
71778;BME280;59609;52.430;4.668;2023-04-02T00:28:58;101426.28;;;7.08;100.00
71778;BME280;59609;52.430;4.668;2023-04-02T00:31:25;101420.81;;;7.08;100.00
71778;BME280;59609;52.430;4.668;2023-04-02T00:33:52;101433.38;;;7.11;100.00
71778;BME280;59609;52.430;4.668;2023-04-02T00:36:19;101423.94;;;7.04;100.00
71778;BME280;59609;52.430;4.668;2023-04-02T00:38:46;101440.59;;;7.12;100.00
71778;BME280;59609;52.430;4.668;2023-04-02T00:41:19;101438.84;;;7.11;100.00
71778;BME280;59609;52.430;4.668;2023-04-02T00:43:47;101453.31;;;7.13;100.00
71778;BME280;59609;52.430;4.668;2023-04-02T00:46:16;101458.44;;;7.06;100.00
71778;BME280;59609;52.430;4.668;2023-04-02T00:48:53;101461.72;;;7.00;100.00
71778;BME280;59609;52.430;4.668;2023-04-02T00:51:46;101465.56;;;6.98;100.00
71778;BME280;59609;52.430;4.668;2023-04-02T00:54:17;101466.59;;;6.86;100.00
71778;BME280;59609;52.430;4.668;2023-04-02T00:56:46;101474.66;;;6.87;100.00
71778;BME280;59609;52.430;4.668;2023-04-02T00:59:33;101473.56;;;6.90;100.00
71778;BME280;59609;52.430;4.668;2023-04-02T01:04:39;101478.69;;;6.83;100.00
71778;BME280;59609;52.430;4.668;2023-04-02T01:07:07;101481.41;;;6.83;100.00
71778;BME280;59609;52.430;4.668;2023-04-02T01:12:59;101489.13;;;6.78;100.00
71778;BME280;59609;52.430;4.668;2023-04-02T01:15:35;101485.41;;;6.79;100.00
71778;BME280;59609;52.430;4.668;2023-04-02T01:23:53;101510.66;;;6.83;100.00
71778;BME280;59609;52.430;4.668;2023-04-02T01:31:39;101517.66;;;6.76;100.00
71778;BME280;59609;52.430;4.668;2023-04-02T01:34:08;101513.03;;;6.65;100.00
71778;BME280;59609;52.430;4.668;2023-04-02T01:44:39;101542.16;;;6.66;100.00
71778;BME280;59609;52.430;4.668;2023-04-02T01:47:10;101545.53;;;6.58;100.00
71778;BME280;59609;52.430;4.668;2023-04-02T01:49:36;101549.03;;;6.60;100.00
71778;BME280;59609;52.430;4.668;2023-04-02T01:52:01;101551.38;;;6.65;100.00
71778;BME280;59609;52.430;4.668;2023-04-02T01:54:27;101563.06;;;6.56;100.00
71778;BME280;59609;52.430;4.668;2023-04-02T01:56:53;101558.22;;;6.48;100.00
71778;BME280;59609;52.430;4.668;2023-04-02T01:59:22;101567.03;;;6.52;100.00
71778;BME280;59609;52.430;4.668;2023-04-02T02:02:02;101556.25;;;6.50;100.00
71778;BME280;59609;52.430;4.668;2023-04-02T02:04:28;101564.91;;;6.44;100.00
71778;BME280;59609;52.430;4.668;2023-04-02T02:06:56;101568.66;;;6.43;100.00
71778;BME280;59609;52.430;4.668;2023-04-02T02:09:32;101583.34;;;6.42;100.00
71778;BME280;59609;52.430;4.668;2023-04-02T02:11:58;101588.06;;;6.40;100.00
71778;BME280;59609;52.430;4.668;2023-04-02T02:14:27;101584.09;;;6.55;100.00
71778;BME280;59609;52.430;4.668;2023-04-02T02:16:54;101596.81;;;6.56;100.00
71778;BME280;59609;52.430;4.668;2023-04-02T02:19:37;101607.47;;;6.48;100.00
71778;BME280;59609;52.430;4.668;2023-04-02T02:22:12;101590.28;;;6.35;100.00
71778;BME280;59609;52.430;4.668;2023-04-02T02:24:39;101613.81;;;6.49;100.00
71778;BME280;59609;52.430;4.668;2023-04-02T02:29:37;101615.19;;;6.43;100.00
71778;BME280;59609;52.430;4.668;2023-04-02T02:32:06;101622.88;;;6.38;100.00
71778;BME280;59609;52.430;4.668;2023-04-02T02:34:36;101627.13;;;6.42;100.00
71778;BME280;59609;52.430;4.668;2023-04-02T02:37:21;101622.41;;;6.44;100.00
71778;BME280;59609;52.430;4.668;2023-04-02T02:39:51;101636.84;;;6.46;100.00
71778;BME280;59609;52.430;4.668;2023-04-02T02:44:56;101643.44;;;6.44;100.00
71778;BME280;59609;52.430;4.668;2023-04-02T02:49:51;101658.72;;;6.35;100.00
71778;BME280;59609;52.430;4.668;2023-04-02T02:52:18;101658.31;;;6.29;100.00
71778;BME280;59609;52.430;4.668;2023-04-02T02:54:50;101675.72;;;6.28;100.00
71778;BME280;59609;52.430;4.668;2023-04-02T02:57:24;101669.22;;;6.17;100.00
71778;BME280;59609;52.430;4.668;2023-04-02T02:59:54;101674.03;;;6.14;100.00
71778;BME280;59609;52.430;4.668;2023-04-02T03:02:22;101689.72;;;6.12;100.00
71778;BME280;59609;52.430;4.668;2023-04-02T03:04:50;101687.47;;;6.06;100.00
71778;BME280;59609;52.430;4.668;2023-04-02T03:07:17;101691.06;;;6.06;100.00
71778;BME280;59609;52.430;4.668;2023-04-02T03:15:59;101716.16;;;6.00;100.00
71778;BME280;59609;52.430;4.668;2023-04-02T03:23:41;101722.88;;;5.84;100.00
71778;BME280;59609;52.430;4.668;2023-04-02T03:29:03;101734.06;;;5.68;100.00
71778;BME280;59609;52.430;4.668;2023-04-02T03:31:32;101737.38;;;5.84;100.00
71778;BME280;59609;52.430;4.668;2023-04-02T03:34:21;101736.09;;;5.90;100.00
71778;BME280;59609;52.430;4.668;2023-04-02T03:37:10;101747.66;;;5.81;100.00
71778;BME280;59609;52.430;4.668;2023-04-02T03:44:57;101756.75;;;5.94;100.00
71778;BME280;59609;52.430;4.668;2023-04-02T03:47:37;101763.00;;;5.96;100.00
71778;BME280;59609;52.430;4.668;2023-04-02T03:50:10;101774.91;;;5.95;100.00
71778;BME280;59609;52.430;4.668;2023-04-02T03:52:39;101771.53;;;5.91;100.00
71778;BME280;59609;52.430;4.668;2023-04-02T03:55:14;101776.53;;;5.85;100.00
71778;BME280;59609;52.430;4.668;2023-04-02T04:02:49;101792.88;;;5.74;100.00
71778;BME280;59609;52.430;4.668;2023-04-02T04:05:29;101793.13;;;5.45;100.00
71778;BME280;59609;52.430;4.668;2023-04-02T04:08:01;101818.72;;;5.32;100.00
71778;BME280;59609;52.430;4.668;2023-04-02T04:10:28;101823.09;;;5.34;100.00
71778;BME280;59609;52.430;4.668;2023-04-02T04:13:01;101827.56;;;5.35;100.00
71778;BME280;59609;52.430;4.668;2023-04-02T04:15:33;101832.38;;;5.32;100.00
71778;BME280;59609;52.430;4.668;2023-04-02T04:18:08;101836.31;;;5.28;100.00
71778;BME280;59609;52.430;4.668;2023-04-02T04:23:38;101850.84;;;5.28;100.00
71778;BME280;59609;52.430;4.668;2023-04-02T04:26:16;101857.06;;;5.17;100.00
71778;BME280;59609;52.430;4.668;2023-04-02T04:28:59;101865.66;;;4.99;100.00
71778;BME280;59609;52.430;4.668;2023-04-02T04:34:37;101880.88;;;5.03;100.00
71778;BME280;59609;52.430;4.668;2023-04-02T04:36:58;101885.66;;;4.99;100.00
71778;BME280;59609;52.430;4.668;2023-04-02T04:39:48;101904.44;;;5.04;100.00
71778;BME280;59609;52.430;4.668;2023-04-02T04:42:21;101906.28;;;4.91;100.00
71778;BME280;59609;52.430;4.668;2023-04-02T04:44:54;101899.38;;;4.85;100.00
71778;BME280;59609;52.430;4.668;2023-04-02T04:47:32;101903.91;;;4.99;100.00
71778;BME280;59609;52.430;4.668;2023-04-02T04:50:15;101910.22;;;4.87;100.00
71778;BME280;59609;52.430;4.668;2023-04-02T04:52:43;101920.84;;;4.77;100.00
71778;BME280;59609;52.430;4.668;2023-04-02T04:55:26;101919.38;;;4.59;100.00
71778;BME280;59609;52.430;4.668;2023-04-02T04:58:00;101933.19;;;4.70;100.00
71778;BME280;59609;52.430;4.668;2023-04-02T05:00:50;101932.59;;;4.65;100.00
71778;BME280;59609;52.430;4.668;2023-04-02T05:03:37;101935.25;;;4.66;99.68
71778;BME280;59609;52.430;4.668;2023-04-02T05:06:31;101939.72;;;4.67;100.00
71778;BME280;59609;52.430;4.668;2023-04-02T05:09:09;101948.25;;;4.49;99.65
71778;BME280;59609;52.430;4.668;2023-04-02T05:11:41;101961.31;;;4.44;99.81
71778;BME280;59609;52.430;4.668;2023-04-02T05:14:24;101959.03;;;4.50;99.72
71778;BME280;59609;52.430;4.668;2023-04-02T05:17:03;101972.91;;;4.47;99.48
71778;BME280;59609;52.430;4.668;2023-04-02T05:19:36;101970.38;;;4.44;99.64
71778;BME280;59609;52.430;4.668;2023-04-02T05:28:17;101986.25;;;4.38;99.34
71778;BME280;59609;52.430;4.668;2023-04-02T05:30:46;101995.53;;;4.49;98.37
71778;BME280;59609;52.430;4.668;2023-04-02T05:33:33;102004.00;;;4.45;98.73
71778;BME280;59609;52.430;4.668;2023-04-02T05:36:32;102013.94;;;4.46;98.70
71778;BME280;59609;52.430;4.668;2023-04-02T05:38:59;102019.78;;;4.40;98.70
71778;BME280;59609;52.430;4.668;2023-04-02T05:41:30;102033.16;;;4.30;98.90
71778;BME280;59609;52.430;4.668;2023-04-02T05:52:05;102051.84;;;4.22;97.82
71778;BME280;59609;52.430;4.668;2023-04-02T05:55:18;102055.53;;;4.21;96.99
71778;BME280;59609;52.430;4.668;2023-04-02T05:57:50;102072.00;;;4.20;97.11
71778;BME280;59609;52.430;4.668;2023-04-02T06:00:23;102079.13;;;4.22;97.08
71778;BME280;59609;52.430;4.668;2023-04-02T06:02:56;102081.44;;;4.14;96.48
71778;BME280;59609;52.430;4.668;2023-04-02T06:05:32;102101.31;;;4.16;96.79
71778;BME280;59609;52.430;4.668;2023-04-02T06:08:10;102090.78;;;4.24;97.22
71778;BME280;59609;52.430;4.668;2023-04-02T06:10:47;102095.97;;;4.29;97.16
71778;BME280;59609;52.430;4.668;2023-04-02T06:13:16;102114.47;;;4.38;97.75
71778;BME280;59609;52.430;4.668;2023-04-02T06:15:43;102114.00;;;4.31;97.60
71778;BME280;59609;52.430;4.668;2023-04-02T06:18:21;102123.06;;;4.32;97.58
71778;BME280;59609;52.430;4.668;2023-04-02T06:20:48;102127.75;;;4.30;96.85
71778;BME280;59609;52.430;4.668;2023-04-02T06:23:37;102119.44;;;4.31;96.41
71778;BME280;59609;52.430;4.668;2023-04-02T06:28:45;102139.53;;;4.44;97.38
71778;BME280;59609;52.430;4.668;2023-04-02T06:33:58;102126.09;;;4.41;95.19
71778;BME280;59609;52.430;4.668;2023-04-02T06:36:25;102136.72;;;4.74;95.40
71778;BME280;59609;52.430;4.668;2023-04-02T06:38:54;102141.19;;;4.89;94.29
71778;BME280;59609;52.430;4.668;2023-04-02T06:41:23;102158.47;;;4.90;93.59
71778;BME280;59609;52.430;4.668;2023-04-02T06:48:45;102162.72;;;5.22;91.61
71778;BME280;59609;52.430;4.668;2023-04-02T06:51:14;102165.66;;;5.19;92.58
71778;BME280;59609;52.430;4.668;2023-04-02T06:53:45;102169.00;;;4.53;91.14
71778;BME280;59609;52.430;4.668;2023-04-02T06:56:22;102174.84;;;4.18;91.47
71778;BME280;59609;52.430;4.668;2023-04-02T06:58:51;102185.38;;;3.94;92.02
71778;BME280;59609;52.430;4.668;2023-04-02T07:01:21;102186.50;;;4.05;92.44
71778;BME280;59609;52.430;4.668;2023-04-02T07:03:48;102193.84;;;4.19;93.09
71778;BME280;59609;52.430;4.668;2023-04-02T07:06:15;102201.22;;;4.17;92.34
71778;BME280;59609;52.430;4.668;2023-04-02T07:08:41;102197.47;;;3.90;91.76
71778;BME280;59609;52.430;4.668;2023-04-02T07:11:11;102215.53;;;4.06;91.65
71778;BME280;59609;52.430;4.668;2023-04-02T07:13:37;102220.81;;;4.09;91.67
71778;BME280;59609;52.430;4.668;2023-04-02T07:16:03;102233.19;;;4.15;92.00
71778;BME280;59609;52.430;4.668;2023-04-02T07:18:31;102243.28;;;4.29;91.88
71778;BME280;59609;52.430;4.668;2023-04-02T07:20:57;102240.53;;;4.29;91.85
71778;BME280;59609;52.430;4.668;2023-04-02T07:23:23;102254.25;;;4.27;91.97
71778;BME280;59609;52.430;4.668;2023-04-02T07:25:50;102257.03;;;4.41;92.55
71778;BME280;59609;52.430;4.668;2023-04-02T07:28:16;102262.28;;;4.30;91.86
71778;BME280;59609;52.430;4.668;2023-04-02T07:30:44;102260.00;;;4.23;91.82
71778;BME280;59609;52.430;4.668;2023-04-02T07:33:15;102265.97;;;4.29;91.28
71778;BME280;59609;52.430;4.668;2023-04-02T07:35:41;102261.72;;;4.39;90.98
71778;BME280;59609;52.430;4.668;2023-04-02T07:38:07;102269.72;;;4.42;90.83
71778;BME280;59609;52.430;4.668;2023-04-02T07:40:32;102276.06;;;4.43;91.27
71778;BME280;59609;52.430;4.668;2023-04-02T07:42:58;102288.63;;;4.75;90.92
71778;BME280;59609;52.430;4.668;2023-04-02T07:45:25;102280.34;;;4.77;90.15
71778;BME280;59609;52.430;4.668;2023-04-02T07:47:50;102284.00;;;4.61;89.26
71778;BME280;59609;52.430;4.668;2023-04-02T07:50:16;102298.53;;;4.62;89.98
71778;BME280;59609;52.430;4.668;2023-04-02T07:52:42;102304.41;;;4.40;89.55
71778;BME280;59609;52.430;4.668;2023-04-02T07:55:12;102294.59;;;4.22;90.05
71778;BME280;59609;52.430;4.668;2023-04-02T07:57:39;102307.47;;;4.34;90.26
71778;BME280;59609;52.430;4.668;2023-04-02T08:00:08;102297.25;;;4.24;89.22
71778;BME280;59609;52.430;4.668;2023-04-02T08:02:34;102289.91;;;4.54;90.01
71778;BME280;59609;52.430;4.668;2023-04-02T08:04:59;102306.41;;;4.52;89.48
71778;BME280;59609;52.430;4.668;2023-04-02T08:07:26;102302.41;;;5.02;89.53
71778;BME280;59609;52.430;4.668;2023-04-02T08:09:51;102302.41;;;5.58;88.36
71778;BME280;59609;52.430;4.668;2023-04-02T08:12:17;102301.53;;;6.27;86.16
71778;BME280;59609;52.430;4.668;2023-04-02T08:14:42;102312.31;;;6.16;84.77
71778;BME280;59609;52.430;4.668;2023-04-02T08:17:07;102324.63;;;6.09;83.66
71778;BME280;59609;52.430;4.668;2023-04-02T08:19:33;102313.78;;;6.34;82.98
71778;BME280;59609;52.430;4.668;2023-04-02T08:21:59;102316.38;;;6.23;83.13
71778;BME280;59609;52.430;4.668;2023-04-02T08:24:24;102329.75;;;5.72;82.59
71778;BME280;59609;52.430;4.668;2023-04-02T08:26:50;102327.06;;;6.13;83.40
71778;BME280;59609;52.430;4.668;2023-04-02T08:29:19;102333.47;;;6.27;83.26
71778;BME280;59609;52.430;4.668;2023-04-02T08:31:44;102343.34;;;6.29;82.68
71778;BME280;59609;52.430;4.668;2023-04-02T08:34:10;102347.22;;;6.39;82.01
71778;BME280;59609;52.430;4.668;2023-04-02T08:36:37;102344.06;;;6.45;81.16
71778;BME280;59609;52.430;4.668;2023-04-02T08:39:05;102359.13;;;6.11;79.63
71778;BME280;59609;52.430;4.668;2023-04-02T08:41:44;102358.44;;;6.08;80.89
71778;BME280;59609;52.430;4.668;2023-04-02T08:44:25;102352.22;;;6.33;81.28
71778;BME280;59609;52.430;4.668;2023-04-02T08:47:07;102361.78;;;6.40;80.92
71778;BME280;59609;52.430;4.668;2023-04-02T08:50:03;102372.19;;;6.47;80.26
71778;BME280;59609;52.430;4.668;2023-04-02T08:52:35;102382.63;;;6.82;80.02
71778;BME280;59609;52.430;4.668;2023-04-02T08:55:03;102380.16;;;7.04;79.01
71778;BME280;59609;52.430;4.668;2023-04-02T09:00:22;102392.47;;;7.74;77.04
71778;BME280;59609;52.430;4.668;2023-04-02T09:03:16;102401.50;;;7.63;76.01
71778;BME280;59609;52.430;4.668;2023-04-02T09:05:41;102406.78;;;7.66;76.02
71778;BME280;59609;52.430;4.668;2023-04-02T09:08:31;102401.38;;;7.77;76.16
71778;BME280;59609;52.430;4.668;2023-04-02T09:13:29;102403.00;;;7.67;73.68
71778;BME280;59609;52.430;4.668;2023-04-02T09:16:07;102406.22;;;7.87;74.88
71778;BME280;59609;52.430;4.668;2023-04-02T09:18:34;102398.63;;;7.40;74.40
71778;BME280;59609;52.430;4.668;2023-04-02T09:21:14;102411.69;;;7.61;74.45
71778;BME280;59609;52.430;4.668;2023-04-02T09:23:42;102413.47;;;7.62;73.88
71778;BME280;59609;52.430;4.668;2023-04-02T09:26:29;102420.25;;;7.82;73.44
71778;BME280;59609;52.430;4.668;2023-04-02T09:29:40;102426.84;;;7.92;72.53
71778;BME280;59609;52.430;4.668;2023-04-02T09:32:32;102440.97;;;8.11;70.83
71778;BME280;59609;52.430;4.668;2023-04-02T09:35:24;102435.47;;;8.11;70.17
71778;BME280;59609;52.430;4.668;2023-04-02T09:38:10;102439.69;;;7.79;72.01
71778;BME280;59609;52.430;4.668;2023-04-02T09:40:42;102452.41;;;7.93;72.15
71778;BME280;59609;52.430;4.668;2023-04-02T09:43:12;102448.56;;;7.95;70.81
71778;BME280;59609;52.430;4.668;2023-04-02T09:45:39;102455.03;;;7.82;69.84
71778;BME280;59609;52.430;4.668;2023-04-02T09:48:22;102449.84;;;8.40;71.79
71778;BME280;59609;52.430;4.668;2023-04-02T09:50:48;102465.50;;;8.63;70.43
71778;BME280;59609;52.430;4.668;2023-04-02T09:53:37;102467.19;;;8.41;68.55
71778;BME280;59609;52.430;4.668;2023-04-02T09:58:32;102475.66;;;8.25;68.56
71778;BME280;59609;52.430;4.668;2023-04-02T10:00:57;102467.53;;;8.36;69.57
71778;BME280;59609;52.430;4.668;2023-04-02T10:03:27;102466.56;;;8.73;69.51
71778;BME280;59609;52.430;4.668;2023-04-02T10:08:29;102465.69;;;8.73;68.43
71778;BME280;59609;52.430;4.668;2023-04-02T10:10:58;102460.22;;;8.84;69.70
71778;BME280;59609;52.430;4.668;2023-04-02T10:13:37;102462.25;;;9.06;67.57
71778;BME280;59609;52.430;4.668;2023-04-02T10:16:10;102468.72;;;9.28;68.28
71778;BME280;59609;52.430;4.668;2023-04-02T10:21:30;102483.09;;;8.85;66.63
71778;BME280;59609;52.430;4.668;2023-04-02T10:23:57;102481.78;;;8.90;67.55
71778;BME280;59609;52.430;4.668;2023-04-02T10:32:05;102495.56;;;9.25;66.89
71778;BME280;59609;52.430;4.668;2023-04-02T10:34:33;102498.69;;;9.20;65.58
71778;BME280;59609;52.430;4.668;2023-04-02T10:37:26;102501.19;;;9.47;66.09
71778;BME280;59609;52.430;4.668;2023-04-02T10:43:08;102502.69;;;9.51;65.15
71778;BME280;59609;52.430;4.668;2023-04-02T10:45:45;102514.19;;;9.80;64.30
71778;BME280;59609;52.430;4.668;2023-04-02T10:48:27;102504.38;;;10.44;64.27
71778;BME280;59609;52.430;4.668;2023-04-02T10:59:38;102528.69;;;10.72;61.84
71778;BME280;59609;52.430;4.668;2023-04-02T11:02:24;102526.94;;;10.60;59.47
71778;BME280;59609;52.430;4.668;2023-04-02T11:04:54;102533.69;;;10.78;59.55
71778;BME280;59609;52.430;4.668;2023-04-02T11:07:23;102532.63;;;11.13;58.42
71778;BME280;59609;52.430;4.668;2023-04-02T11:09:54;102536.38;;;11.23;59.08
71778;BME280;59609;52.430;4.668;2023-04-02T11:13:01;102534.09;;;11.60;58.16
71778;BME280;59609;52.430;4.668;2023-04-02T11:15:25;102546.03;;;11.17;56.64
71778;BME280;59609;52.430;4.668;2023-04-02T11:17:51;102545.69;;;11.00;58.39
71778;BME280;59609;52.430;4.668;2023-04-02T11:20:41;102543.50;;;11.14;59.05
71778;BME280;59609;52.430;4.668;2023-04-02T11:23:10;102550.63;;;10.63;58.71
71778;BME280;59609;52.430;4.668;2023-04-02T11:25:37;102547.63;;;10.77;58.76
71778;BME280;59609;52.430;4.668;2023-04-02T11:28:31;102565.38;;;11.06;59.14
71778;BME280;59609;52.430;4.668;2023-04-02T11:30:58;102562.25;;;10.89;59.05
71778;BME280;59609;52.430;4.668;2023-04-02T11:35:55;102559.88;;;11.38;57.47
71778;BME280;59609;52.430;4.668;2023-04-02T11:40:50;102557.91;;;11.72;57.60
71778;BME280;59609;52.430;4.668;2023-04-02T11:48:45;102557.66;;;11.32;56.26
71778;BME280;59609;52.430;4.668;2023-04-02T11:53:47;102567.44;;;11.68;57.94
71778;BME280;59609;52.430;4.668;2023-04-02T11:59:05;102573.81;;;11.79;55.18
71778;BME280;59609;52.430;4.668;2023-04-02T12:01:53;102574.22;;;11.75;58.13
71778;BME280;59609;52.430;4.668;2023-04-02T12:09:58;102580.50;;;12.39;53.84
71778;BME280;59609;52.430;4.668;2023-04-02T12:12:25;102590.28;;;12.02;55.13
71778;BME280;59609;52.430;4.668;2023-04-02T12:14:55;102595.03;;;11.68;54.32
71778;BME280;59609;52.430;4.668;2023-04-02T12:17:36;102585.69;;;11.70;54.34
71778;BME280;59609;52.430;4.668;2023-04-02T12:22:46;102597.09;;;12.18;54.75
71778;BME280;59609;52.430;4.668;2023-04-02T12:25:26;102606.75;;;12.24;54.78
71778;BME280;59609;52.430;4.668;2023-04-02T12:28:14;102599.13;;;12.16;54.87
71778;BME280;59609;52.430;4.668;2023-04-02T12:30:45;102606.75;;;12.24;54.39
71778;BME280;59609;52.430;4.668;2023-04-02T12:33:33;102610.78;;;12.20;54.14
71778;BME280;59609;52.430;4.668;2023-04-02T12:36:04;102603.63;;;12.38;54.53
71778;BME280;59609;52.430;4.668;2023-04-02T12:38:35;102615.63;;;12.07;52.03
71778;BME280;59609;52.430;4.668;2023-04-02T12:43:56;102618.22;;;11.87;53.06
71778;BME280;59609;52.430;4.668;2023-04-02T12:46:22;102613.63;;;11.77;53.49
71778;BME280;59609;52.430;4.668;2023-04-02T12:48:54;102608.53;;;12.34;54.86
71778;BME280;59609;52.430;4.668;2023-04-02T12:51:23;102605.78;;;12.85;53.17
71778;BME280;59609;52.430;4.668;2023-04-02T12:53:50;102608.69;;;12.54;53.02
71778;BME280;59609;52.430;4.668;2023-04-02T12:56:21;102618.03;;;12.21;52.93
71778;BME280;59609;52.430;4.668;2023-04-02T12:58:56;102610.41;;;12.75;52.14
71778;BME280;59609;52.430;4.668;2023-04-02T13:01:27;102607.50;;;12.77;51.82
71778;BME280;59609;52.430;4.668;2023-04-02T13:04:10;102623.13;;;12.57;50.77
71778;BME280;59609;52.430;4.668;2023-04-02T13:06:38;102613.41;;;12.93;50.89
71778;BME280;59609;52.430;4.668;2023-04-02T13:09:23;102621.03;;;12.29;50.90
71778;BME280;59609;52.430;4.668;2023-04-02T13:11:50;102627.03;;;12.13;51.73
71778;BME280;59609;52.430;4.668;2023-04-02T13:14:17;102624.41;;;12.53;51.24
71778;BME280;59609;52.430;4.668;2023-04-02T13:16:44;102623.91;;;12.48;50.17
71778;BME280;59609;52.430;4.668;2023-04-02T13:21:42;102636.81;;;12.17;51.55
71778;BME280;59609;52.430;4.668;2023-04-02T13:24:37;102645.78;;;11.99;51.92
71778;BME280;59609;52.430;4.668;2023-04-02T13:27:08;102643.00;;;12.51;51.92
71778;BME280;59609;52.430;4.668;2023-04-02T13:29:35;102632.47;;;12.66;50.27
71778;BME280;59609;52.430;4.668;2023-04-02T13:32:05;102648.53;;;13.02;49.91
71778;BME280;59609;52.430;4.668;2023-04-02T13:34:32;102648.84;;;12.78;49.77
71778;BME280;59609;52.430;4.668;2023-04-02T13:36:58;102662.00;;;12.45;50.85
71778;BME280;59609;52.430;4.668;2023-04-02T13:39:24;102649.00;;;12.35;50.41
71778;BME280;59609;52.430;4.668;2023-04-02T13:44:24;102654.31;;;12.89;48.28
71778;BME280;59609;52.430;4.668;2023-04-02T13:46:51;102643.22;;;12.89;49.17
71778;BME280;59609;52.430;4.668;2023-04-02T13:49:17;102641.75;;;12.85;48.24
71778;BME280;59609;52.430;4.668;2023-04-02T13:51:46;102646.63;;;12.72;48.33
71778;BME280;59609;52.430;4.668;2023-04-02T13:56:50;102644.97;;;12.60;49.16
71778;BME280;59609;52.430;4.668;2023-04-02T13:59:16;102652.03;;;12.74;50.23
71778;BME280;59609;52.430;4.668;2023-04-02T14:01:43;102651.25;;;12.93;50.11
71778;BME280;59609;52.430;4.668;2023-04-02T14:04:13;102663.38;;;12.50;49.53
71778;BME280;59609;52.430;4.668;2023-04-02T14:09:57;102642.97;;;12.93;50.46
71778;BME280;59609;52.430;4.668;2023-04-02T14:12:44;102655.94;;;12.71;48.85
71778;BME280;59609;52.430;4.668;2023-04-02T14:15:15;102649.09;;;12.96;48.76
71778;BME280;59609;52.430;4.668;2023-04-02T14:26:19;102673.94;;;12.86;49.48
71778;BME280;59609;52.430;4.668;2023-04-02T14:29:00;102666.94;;;12.82;49.87
71778;BME280;59609;52.430;4.668;2023-04-02T14:31:33;102675.81;;;13.07;50.01
71778;BME280;59609;52.430;4.668;2023-04-02T14:37:06;102678.44;;;13.38;49.53
71778;BME280;59609;52.430;4.668;2023-04-02T14:39:44;102673.78;;;13.39;49.17
71778;BME280;59609;52.430;4.668;2023-04-02T14:42:16;102681.13;;;13.59;49.10
71778;BME280;59609;52.430;4.668;2023-04-02T14:45:18;102681.94;;;13.40;49.01
71778;BME280;59609;52.430;4.668;2023-04-02T14:50:39;102686.81;;;12.97;49.73
71778;BME280;59609;52.430;4.668;2023-04-02T14:53:18;102684.13;;;13.37;48.27
71778;BME280;59609;52.430;4.668;2023-04-02T14:55:48;102682.69;;;13.12;48.14
71778;BME280;59609;52.430;4.668;2023-04-02T14:58:30;102691.47;;;13.17;48.69
71778;BME280;59609;52.430;4.668;2023-04-02T15:01:00;102689.81;;;13.45;49.49
71778;BME280;59609;52.430;4.668;2023-04-02T15:03:35;102688.91;;;13.35;49.51
71778;BME280;59609;52.430;4.668;2023-04-02T15:06:05;102700.97;;;13.04;49.40
71778;BME280;59609;52.430;4.668;2023-04-02T15:11:13;102705.94;;;12.79;48.97
71778;BME280;59609;52.430;4.668;2023-04-02T15:13:59;102700.38;;;13.21;47.71
71778;BME280;59609;52.430;4.668;2023-04-02T15:16:26;102693.63;;;13.44;47.99
71778;BME280;59609;52.430;4.668;2023-04-02T15:18:54;102696.72;;;13.20;49.45
71778;BME280;59609;52.430;4.668;2023-04-02T15:46:08;102704.34;;;13.07;49.25
71778;BME280;59609;52.430;4.668;2023-04-02T15:51:35;102702.94;;;13.43;49.60
71778;BME280;59609;52.430;4.668;2023-04-02T15:56:47;102712.97;;;13.84;50.03
71778;BME280;59609;52.430;4.668;2023-04-02T16:04:56;102717.72;;;15.26;45.57
71778;BME280;59609;52.430;4.668;2023-04-02T16:10:21;102715.09;;;14.68;46.02
71778;BME280;59609;52.430;4.668;2023-04-02T16:12:52;102717.53;;;14.90;45.88
71778;BME280;59609;52.430;4.668;2023-04-02T16:15:25;102725.00;;;14.61;45.78
71778;BME280;59609;52.430;4.668;2023-04-02T16:18:06;102724.00;;;14.43;45.49
71778;BME280;59609;52.430;4.668;2023-04-02T16:20:39;102719.94;;;14.47;45.48
71778;BME280;59609;52.430;4.668;2023-04-02T16:23:19;102734.06;;;14.73;45.59
71778;BME280;59609;52.430;4.668;2023-04-02T16:28:24;102743.56;;;14.80;44.33
71778;BME280;59609;52.430;4.668;2023-04-02T16:34:15;102746.16;;;15.47;44.27
71778;BME280;59609;52.430;4.668;2023-04-02T16:39:16;102759.50;;;16.43;42.14
71778;BME280;59609;52.430;4.668;2023-04-02T16:46:56;102772.94;;;12.51;49.38
71778;BME280;59609;52.430;4.668;2023-04-02T16:51:55;102777.03;;;11.60;54.01
71778;BME280;59609;52.430;4.668;2023-04-02T16:57:04;102779.59;;;13.01;55.03
71778;BME280;59609;52.430;4.668;2023-04-02T17:10:23;102797.03;;;10.95;66.27
71778;BME280;59609;52.430;4.668;2023-04-02T17:15:33;102818.00;;;10.63;63.11
71778;BME280;59609;52.430;4.668;2023-04-02T17:18:12;102819.88;;;10.39;67.24
71778;BME280;59609;52.430;4.668;2023-04-02T17:20:40;102814.66;;;10.23;70.36
71778;BME280;59609;52.430;4.668;2023-04-02T17:23:10;102813.16;;;10.06;71.64
71778;BME280;59609;52.430;4.668;2023-04-02T17:25:46;102822.53;;;9.91;72.77
71778;BME280;59609;52.430;4.668;2023-04-02T17:28:14;102833.13;;;9.84;74.12
71778;BME280;59609;52.430;4.668;2023-04-02T17:30:48;102851.47;;;9.60;74.13
71778;BME280;59609;52.430;4.668;2023-04-02T17:33:17;102839.47;;;9.49;75.02